sensor_id;sensor_type;location;lat;lon;timestamp;pressure;altitude;pressure_sealevel;temperature;humidity
69402;BME280;56589;51.992;5.924;2022-10-23T00:01:11;100918.34;;;12.10;81.73
69402;BME280;56589;51.992;5.924;2022-10-23T00:03:41;100914.13;;;12.07;81.53
69402;BME280;56589;51.992;5.924;2022-10-23T00:06:08;100902.03;;;12.05;81.57
69402;BME280;56589;51.992;5.924;2022-10-23T00:08:37;100892.56;;;12.02;81.26
69402;BME280;56589;51.992;5.924;2022-10-23T00:11:05;100893.84;;;11.97;81.46
69402;BME280;56589;51.992;5.924;2022-10-23T00:13:32;100888.03;;;11.91;81.41
69402;BME280;56589;51.992;5.924;2022-10-23T00:15:58;100882.25;;;11.86;81.27
69402;BME280;56589;51.992;5.924;2022-10-23T00:18:24;100885.09;;;11.83;81.08
69402;BME280;56589;51.992;5.924;2022-10-23T00:20:52;100868.78;;;11.78;81.20
69402;BME280;56589;51.992;5.924;2022-10-23T00:23:18;100875.19;;;11.74;81.07
69402;BME280;56589;51.992;5.924;2022-10-23T00:25:44;100873.59;;;11.72;81.62
69402;BME280;56589;51.992;5.924;2022-10-23T00:28:10;100881.81;;;11.67;81.42
69402;BME280;56589;51.992;5.924;2022-10-23T00:30:35;100887.25;;;11.64;81.85
69402;BME280;56589;51.992;5.924;2022-10-23T00:33:01;100886.31;;;11.65;81.70
69402;BME280;56589;51.992;5.924;2022-10-23T00:35:28;100892.44;;;11.66;81.86
69402;BME280;56589;51.992;5.924;2022-10-23T00:37:56;100885.56;;;11.63;82.08
69402;BME280;56589;51.992;5.924;2022-10-23T00:40:24;100882.94;;;11.63;81.78
69402;BME280;56589;51.992;5.924;2022-10-23T00:42:50;100877.91;;;11.60;82.24
69402;BME280;56589;51.992;5.924;2022-10-23T00:45:20;100894.63;;;11.59;82.13
69402;BME280;56589;51.992;5.924;2022-10-23T00:47:47;100883.34;;;11.57;81.93
69402;BME280;56589;51.992;5.924;2022-10-23T00:50:14;100878.19;;;11.55;81.88
69402;BME280;56589;51.992;5.924;2022-10-23T00:52:44;100872.94;;;11.55;82.24
69402;BME280;56589;51.992;5.924;2022-10-23T00:55:18;100871.38;;;11.53;82.34
69402;BME280;56589;51.992;5.924;2022-10-23T00:57:47;100867.97;;;11.51;82.07
69402;BME280;56589;51.992;5.924;2022-10-23T01:00:17;100867.25;;;11.49;82.26
69402;BME280;56589;51.992;5.924;2022-10-23T01:02:45;100872.63;;;11.47;82.58
69402;BME280;56589;51.992;5.924;2022-10-23T01:05:11;100862.94;;;11.48;83.03
69402;BME280;56589;51.992;5.924;2022-10-23T01:07:44;100870.72;;;11.49;82.66
69402;BME280;56589;51.992;5.924;2022-10-23T01:10:25;100866.31;;;11.50;82.80
69402;BME280;56589;51.992;5.924;2022-10-23T01:13:02;100865.47;;;11.49;82.82
69402;BME280;56589;51.992;5.924;2022-10-23T01:15:36;100863.78;;;11.48;82.59
69402;BME280;56589;51.992;5.924;2022-10-23T01:18:14;100858.53;;;11.48;82.50
69402;BME280;56589;51.992;5.924;2022-10-23T01:20:49;100864.63;;;11.49;82.43
69402;BME280;56589;51.992;5.924;2022-10-23T01:23:45;100869.78;;;11.50;82.65
69402;BME280;56589;51.992;5.924;2022-10-23T01:26:37;100872.41;;;11.50;82.60
69402;BME280;56589;51.992;5.924;2022-10-23T01:29:19;100866.31;;;11.50;82.44
69402;BME280;56589;51.992;5.924;2022-10-23T01:31:57;100867.25;;;11.49;82.57
69402;BME280;56589;51.992;5.924;2022-10-23T01:34:31;100860.31;;;11.48;82.57
69402;BME280;56589;51.992;5.924;2022-10-23T01:37:06;100849.03;;;11.46;82.43
69402;BME280;56589;51.992;5.924;2022-10-23T01:39:38;100848.41;;;11.42;82.45
69402;BME280;56589;51.992;5.924;2022-10-23T01:42:17;100849.56;;;11.38;82.19
69402;BME280;56589;51.992;5.924;2022-10-23T01:44:53;100849.56;;;11.38;82.20
69402;BME280;56589;51.992;5.924;2022-10-23T01:47:27;100845.47;;;11.34;82.38
69402;BME280;56589;51.992;5.924;2022-10-23T01:49:59;100840.19;;;11.34;82.47
69402;BME280;56589;51.992;5.924;2022-10-23T01:52:28;100831.66;;;11.30;82.25
69402;BME280;56589;51.992;5.924;2022-10-23T01:54:58;100823.06;;;11.28;82.30
69402;BME280;56589;51.992;5.924;2022-10-23T01:57:28;100830.94;;;11.28;82.79
69402;BME280;56589;51.992;5.924;2022-10-23T02:00:04;100835.25;;;11.29;82.56
69402;BME280;56589;51.992;5.924;2022-10-23T02:02:32;100831.78;;;11.29;82.39
69402;BME280;56589;51.992;5.924;2022-10-23T02:05:06;100831.78;;;11.29;82.92
69402;BME280;56589;51.992;5.924;2022-10-23T02:07:36;100823.06;;;11.28;82.47
69402;BME280;56589;51.992;5.924;2022-10-23T02:10:03;100814.31;;;11.28;82.52
69402;BME280;56589;51.992;5.924;2022-10-23T02:12:34;100816.00;;;11.29;82.96
69402;BME280;56589;51.992;5.924;2022-10-23T02:15:12;100814.22;;;11.29;82.91
69402;BME280;56589;51.992;5.924;2022-10-23T02:17:52;100806.34;;;11.29;82.74
69402;BME280;56589;51.992;5.924;2022-10-23T02:20:35;100802.66;;;11.32;82.91
69402;BME280;56589;51.992;5.924;2022-10-23T02:23:10;100803.59;;;11.31;82.80
69402;BME280;56589;51.992;5.924;2022-10-23T02:25:47;100799.06;;;11.33;83.27
69402;BME280;56589;51.992;5.924;2022-10-23T02:28:22;100803.28;;;11.35;83.14
69402;BME280;56589;51.992;5.924;2022-10-23T02:30:54;100792.78;;;11.35;82.78
69402;BME280;56589;51.992;5.924;2022-10-23T02:33:24;100785.00;;;11.34;83.03
69402;BME280;56589;51.992;5.924;2022-10-23T02:35:51;100786.97;;;11.30;83.04
69402;BME280;56589;51.992;5.924;2022-10-23T02:38:31;100794.97;;;11.29;82.57
69402;BME280;56589;51.992;5.924;2022-10-23T02:41:17;100793.50;;;11.25;82.91
69402;BME280;56589;51.992;5.924;2022-10-23T02:44:02;100799.81;;;11.22;82.99
69402;BME280;56589;51.992;5.924;2022-10-23T02:46:49;100793.78;;;11.20;82.84
69402;BME280;56589;51.992;5.924;2022-10-23T02:49:24;100793.06;;;11.18;83.19
69402;BME280;56589;51.992;5.924;2022-10-23T02:52:04;100793.06;;;11.18;82.77
69402;BME280;56589;51.992;5.924;2022-10-23T02:54:45;100794.13;;;11.16;82.92
69402;BME280;56589;51.992;5.924;2022-10-23T02:57:22;100792.41;;;11.15;83.06
69402;BME280;56589;51.992;5.924;2022-10-23T03:00:01;100795.03;;;11.15;83.21
69402;BME280;56589;51.992;5.924;2022-10-23T03:02:36;100786.41;;;11.13;83.12
69402;BME280;56589;51.992;5.924;2022-10-23T03:05:08;100788.22;;;11.12;83.41
69402;BME280;56589;51.992;5.924;2022-10-23T03:07:38;100778.75;;;11.09;83.18
69402;BME280;56589;51.992;5.924;2022-10-23T03:10:07;100765.69;;;11.08;83.28
69402;BME280;56589;51.992;5.924;2022-10-23T03:12:34;100771.06;;;11.06;83.15
69402;BME280;56589;51.992;5.924;2022-10-23T03:15:00;100762.22;;;11.07;83.25
69402;BME280;56589;51.992;5.924;2022-10-23T03:17:26;100757.09;;;11.06;83.73
69402;BME280;56589;51.992;5.924;2022-10-23T03:19:54;100759.72;;;11.06;83.70
69402;BME280;56589;51.992;5.924;2022-10-23T03:22:20;100751.81;;;11.06;83.76
69402;BME280;56589;51.992;5.924;2022-10-23T03:24:46;100749.09;;;11.07;83.88
69402;BME280;56589;51.992;5.924;2022-10-23T03:27:12;100748.91;;;11.10;84.07
69402;BME280;56589;51.992;5.924;2022-10-23T03:29:37;100744.38;;;11.13;83.79
69402;BME280;56589;51.992;5.924;2022-10-23T03:32:04;100740.69;;;11.15;83.74
69402;BME280;56589;51.992;5.924;2022-10-23T03:34:29;100741.56;;;11.16;83.94
69402;BME280;56589;51.992;5.924;2022-10-23T03:36:58;100737.16;;;11.16;83.79
69402;BME280;56589;51.992;5.924;2022-10-23T03:39:24;100738.81;;;11.17;84.05
69402;BME280;56589;51.992;5.924;2022-10-23T03:41:49;100738.94;;;11.16;83.81
69402;BME280;56589;51.992;5.924;2022-10-23T03:44:16;100746.69;;;11.17;83.80
69402;BME280;56589;51.992;5.924;2022-10-23T03:46:42;100732.81;;;11.15;84.17
69402;BME280;56589;51.992;5.924;2022-10-23T03:49:08;100725.88;;;11.14;83.82
69402;BME280;56589;51.992;5.924;2022-10-23T03:51:33;100733.75;;;11.14;83.69
69402;BME280;56589;51.992;5.924;2022-10-23T03:54:02;100725.88;;;11.14;83.99
69402;BME280;56589;51.992;5.924;2022-10-23T03:56:28;100719.78;;;11.14;83.80
69402;BME280;56589;51.992;5.924;2022-10-23T03:58:54;100715.47;;;11.13;83.80
69402;BME280;56589;51.992;5.924;2022-10-23T04:01:19;100714.63;;;11.12;84.07
69402;BME280;56589;51.992;5.924;2022-10-23T04:03:45;100706.75;;;11.12;84.20
69402;BME280;56589;51.992;5.924;2022-10-23T04:06:11;100705.91;;;11.12;84.84
69402;BME280;56589;51.992;5.924;2022-10-23T04:08:37;100704.13;;;11.12;84.41
69402;BME280;56589;51.992;5.924;2022-10-23T04:11:05;100706.53;;;11.15;84.91
69402;BME280;56589;51.992;5.924;2022-10-23T04:13:31;100716.00;;;11.18;84.77
69402;BME280;56589;51.992;5.924;2022-10-23T04:15:57;100701.06;;;11.18;84.68
69402;BME280;56589;51.992;5.924;2022-10-23T04:18:22;100696.66;;;11.19;84.81
69402;BME280;56589;51.992;5.924;2022-10-23T04:20:48;100686.03;;;11.20;84.63
69402;BME280;56589;51.992;5.924;2022-10-23T04:23:16;100683.41;;;11.20;84.48
69402;BME280;56589;51.992;5.924;2022-10-23T04:25:42;100682.38;;;11.23;85.00
69402;BME280;56589;51.992;5.924;2022-10-23T04:28:10;100676.16;;;11.24;84.98
69402;BME280;56589;51.992;5.924;2022-10-23T04:30:36;100674.25;;;11.26;84.92
69402;BME280;56589;51.992;5.924;2022-10-23T04:33:02;100677.66;;;11.28;84.78
69402;BME280;56589;51.992;5.924;2022-10-23T04:35:28;100680.16;;;11.29;84.68
69402;BME280;56589;51.992;5.924;2022-10-23T04:37:54;100672.81;;;11.34;85.08
69402;BME280;56589;51.992;5.924;2022-10-23T04:40:20;100682.97;;;11.39;84.64
69402;BME280;56589;51.992;5.924;2022-10-23T04:42:45;100680.03;;;11.44;84.67
69402;BME280;56589;51.992;5.924;2022-10-23T04:45:14;100673.75;;;11.46;84.74
69402;BME280;56589;51.992;5.924;2022-10-23T04:47:40;100666.69;;;11.47;85.10
69402;BME280;56589;51.992;5.924;2022-10-23T04:50:06;100671.97;;;11.47;84.69
69402;BME280;56589;51.992;5.924;2022-10-23T04:52:32;100665.88;;;11.46;84.93
69402;BME280;56589;51.992;5.924;2022-10-23T04:54:58;100671.84;;;11.48;85.09
69402;BME280;56589;51.992;5.924;2022-10-23T04:57:23;100661.31;;;11.48;84.82
69402;BME280;56589;51.992;5.924;2022-10-23T04:59:49;100656.19;;;11.47;84.99
69402;BME280;56589;51.992;5.924;2022-10-23T05:02:17;100663.84;;;11.50;84.78
69402;BME280;56589;51.992;5.924;2022-10-23T05:04:43;100651.53;;;11.50;84.81
69402;BME280;56589;51.992;5.924;2022-10-23T05:07:09;100650.69;;;11.50;85.30
69402;BME280;56589;51.992;5.924;2022-10-23T05:09:35;100650.59;;;11.51;85.34
69402;BME280;56589;51.992;5.924;2022-10-23T05:12:00;100651.34;;;11.53;85.40
69402;BME280;56589;51.992;5.924;2022-10-23T05:14:26;100649.53;;;11.54;85.57
69402;BME280;56589;51.992;5.924;2022-10-23T05:16:55;100650.25;;;11.56;85.28
69402;BME280;56589;51.992;5.924;2022-10-23T05:19:31;100644.06;;;11.57;85.47
69402;BME280;56589;51.992;5.924;2022-10-23T05:22:04;100641.44;;;11.57;85.32
69402;BME280;56589;51.992;5.924;2022-10-23T05:24:31;100638.91;;;11.55;85.45
69402;BME280;56589;51.992;5.924;2022-10-23T05:26:56;100636.28;;;11.55;84.97
69402;BME280;56589;51.992;5.924;2022-10-23T05:29:22;100639.75;;;11.56;85.73
69402;BME280;56589;51.992;5.924;2022-10-23T05:31:49;100644.91;;;11.57;85.42
69402;BME280;56589;51.992;5.924;2022-10-23T05:34:23;100634.28;;;11.59;85.69
69402;BME280;56589;51.992;5.924;2022-10-23T05:36:56;100629.75;;;11.61;85.52
69402;BME280;56589;51.992;5.924;2022-10-23T05:39:22;100637.41;;;11.64;85.84
69402;BME280;56589;51.992;5.924;2022-10-23T05:41:48;100627.63;;;11.66;85.56
69402;BME280;56589;51.992;5.924;2022-10-23T05:44:14;100627.41;;;11.69;85.30
69402;BME280;56589;51.992;5.924;2022-10-23T05:46:40;100626.38;;;11.72;85.54
69402;BME280;56589;51.992;5.924;2022-10-23T05:49:06;100636.53;;;11.76;85.77
69402;BME280;56589;51.992;5.924;2022-10-23T05:51:38;100638.84;;;11.81;85.47
69402;BME280;56589;51.992;5.924;2022-10-23T05:54:05;100636.72;;;11.86;85.43
69402;BME280;56589;51.992;5.924;2022-10-23T05:56:32;100630.19;;;11.91;85.42
69402;BME280;56589;51.992;5.924;2022-10-23T05:58:58;100616.09;;;11.93;85.35
69402;BME280;56589;51.992;5.924;2022-10-23T06:01:24;100623.84;;;11.94;85.61
69402;BME280;56589;51.992;5.924;2022-10-23T06:03:49;100614.81;;;11.98;85.34
69402;BME280;56589;51.992;5.924;2022-10-23T06:06:15;100626.88;;;12.01;85.53
69402;BME280;56589;51.992;5.924;2022-10-23T06:08:44;100628.69;;;12.00;85.59
69402;BME280;56589;51.992;5.924;2022-10-23T06:11:11;100631.81;;;12.05;85.51
69402;BME280;56589;51.992;5.924;2022-10-23T06:13:40;100620.25;;;12.08;85.04
69402;BME280;56589;51.992;5.924;2022-10-23T06:16:10;100625.38;;;12.09;85.02
69402;BME280;56589;51.992;5.924;2022-10-23T06:18:37;100618.34;;;12.10;85.06
69402;BME280;56589;51.992;5.924;2022-10-23T06:21:03;100613.91;;;12.10;85.16
69402;BME280;56589;51.992;5.924;2022-10-23T06:23:30;100621.69;;;12.12;85.03
69402;BME280;56589;51.992;5.924;2022-10-23T06:25:59;100611.66;;;12.17;85.31
69402;BME280;56589;51.992;5.924;2022-10-23T06:28:25;100604.47;;;12.19;85.23
69402;BME280;56589;51.992;5.924;2022-10-23T06:30:52;100607.94;;;12.19;84.74
69402;BME280;56589;51.992;5.924;2022-10-23T06:33:18;100600.94;;;12.20;84.66
69402;BME280;56589;51.992;5.924;2022-10-23T06:35:44;100594.72;;;12.21;84.73
69402;BME280;56589;51.992;5.924;2022-10-23T06:38:09;100600.00;;;12.21;85.16
69402;BME280;56589;51.992;5.924;2022-10-23T06:40:36;100599.03;;;12.22;85.12
69402;BME280;56589;51.992;5.924;2022-10-23T06:43:04;100597.13;;;12.24;84.86
69402;BME280;56589;51.992;5.924;2022-10-23T06:45:32;100583.97;;;12.24;85.17
69402;BME280;56589;51.992;5.924;2022-10-23T06:47:59;100586.38;;;12.27;84.60
69402;BME280;56589;51.992;5.924;2022-10-23T06:50:25;100583.75;;;12.27;85.06
69402;BME280;56589;51.992;5.924;2022-10-23T06:52:52;100586.25;;;12.29;84.55
69402;BME280;56589;51.992;5.924;2022-10-23T06:55:18;100591.41;;;12.30;84.58
69402;BME280;56589;51.992;5.924;2022-10-23T06:57:44;100596.47;;;12.33;84.71
69402;BME280;56589;51.992;5.924;2022-10-23T07:00:13;100597.06;;;12.37;84.74
69402;BME280;56589;51.992;5.924;2022-10-23T07:02:39;100585.56;;;12.38;84.90
69402;BME280;56589;51.992;5.924;2022-10-23T07:05:06;100582.00;;;12.39;84.81
69402;BME280;56589;51.992;5.924;2022-10-23T07:07:32;100576.59;;;12.40;84.79
69402;BME280;56589;51.992;5.924;2022-10-23T07:09:58;100573.84;;;12.42;84.50
69402;BME280;56589;51.992;5.924;2022-10-23T07:12:23;100577.31;;;12.42;84.78
69402;BME280;56589;51.992;5.924;2022-10-23T07:14:49;100570.16;;;12.44;84.30
69402;BME280;56589;51.992;5.924;2022-10-23T07:17:18;100576.16;;;12.47;84.67
69402;BME280;56589;51.992;5.924;2022-10-23T07:19:45;100577.94;;;12.46;84.20
69402;BME280;56589;51.992;5.924;2022-10-23T07:22:13;100572.56;;;12.48;84.67
69402;BME280;56589;51.992;5.924;2022-10-23T07:24:39;100577.47;;;12.52;84.60
69402;BME280;56589;51.992;5.924;2022-10-23T07:27:05;100579.88;;;12.55;84.09
69402;BME280;56589;51.992;5.924;2022-10-23T07:29:32;100579.78;;;12.57;84.14
69402;BME280;56589;51.992;5.924;2022-10-23T07:31:58;100577.03;;;12.58;84.22
69402;BME280;56589;51.992;5.924;2022-10-23T07:34:27;100572.59;;;12.59;84.13
69402;BME280;56589;51.992;5.924;2022-10-23T07:36:53;100571.50;;;12.61;84.30
69402;BME280;56589;51.992;5.924;2022-10-23T07:39:18;100574.88;;;12.63;84.54
69402;BME280;56589;51.992;5.924;2022-10-23T07:41:45;100566.84;;;12.65;84.35
69402;BME280;56589;51.992;5.924;2022-10-23T07:44:11;100563.97;;;12.68;84.13
69402;BME280;56589;51.992;5.924;2022-10-23T07:46:36;100569.16;;;12.69;84.17
69402;BME280;56589;51.992;5.924;2022-10-23T07:49:02;100564.47;;;12.73;84.29
69402;BME280;56589;51.992;5.924;2022-10-23T07:51:30;100557.31;;;12.75;83.94
69402;BME280;56589;51.992;5.924;2022-10-23T07:53:56;100557.75;;;12.80;83.93
69402;BME280;56589;51.992;5.924;2022-10-23T07:56:23;100562.69;;;12.85;84.32
69402;BME280;56589;51.992;5.924;2022-10-23T07:58:51;100551.94;;;12.88;83.81
69402;BME280;56589;51.992;5.924;2022-10-23T08:01:19;100552.38;;;12.93;84.00
69402;BME280;56589;51.992;5.924;2022-10-23T08:03:52;100558.25;;;12.96;83.70
69402;BME280;56589;51.992;5.924;2022-10-23T08:06:17;100556.25;;;13.00;83.47
69402;BME280;56589;51.992;5.924;2022-10-23T08:08:47;100549.28;;;12.99;83.83
69402;BME280;56589;51.992;5.924;2022-10-23T08:11:14;100545.44;;;13.03;83.75
69402;BME280;56589;51.992;5.924;2022-10-23T08:13:44;100553.22;;;13.05;83.39
69402;BME280;56589;51.992;5.924;2022-10-23T08:16:10;100547.72;;;13.08;83.76
69402;BME280;56589;51.992;5.924;2022-10-23T08:18:36;100540.66;;;13.08;83.58
69402;BME280;56589;51.992;5.924;2022-10-23T08:21:03;100544.84;;;13.11;83.77
69402;BME280;56589;51.992;5.924;2022-10-23T08:23:29;100546.28;;;13.15;83.39
69402;BME280;56589;51.992;5.924;2022-10-23T08:26:01;100548.91;;;13.15;83.36
69402;BME280;56589;51.992;5.924;2022-10-23T08:28:28;100542.56;;;13.17;83.16
69402;BME280;56589;51.992;5.924;2022-10-23T08:30:54;100542.47;;;13.19;83.48
69402;BME280;56589;51.992;5.924;2022-10-23T08:33:20;100543.03;;;13.22;83.32
69402;BME280;56589;51.992;5.924;2022-10-23T08:35:47;100533.22;;;13.24;83.09
69402;BME280;56589;51.992;5.924;2022-10-23T08:38:13;100528.53;;;13.28;83.63
69402;BME280;56589;51.992;5.924;2022-10-23T08:40:43;100526.50;;;13.32;83.42
69402;BME280;56589;51.992;5.924;2022-10-23T08:43:16;100519.28;;;13.34;83.27
69402;BME280;56589;51.992;5.924;2022-10-23T08:45:48;100518.09;;;13.38;83.08
69402;BME280;56589;51.992;5.924;2022-10-23T08:48:22;100511.59;;;13.42;83.57
69402;BME280;56589;51.992;5.924;2022-10-23T08:51:03;100521.59;;;13.49;83.09
69402;BME280;56589;51.992;5.924;2022-10-23T08:53:40;100519.41;;;13.55;82.86
69402;BME280;56589;51.992;5.924;2022-10-23T08:56:20;100514.59;;;13.60;83.37
69402;BME280;56589;51.992;5.924;2022-10-23T08:58:54;100497.28;;;13.67;83.01
69402;BME280;56589;51.992;5.924;2022-10-23T09:01:36;100493.47;;;13.71;82.60
69402;BME280;56589;51.992;5.924;2022-10-23T09:04:09;100500.88;;;13.77;83.12
69402;BME280;56589;51.992;5.924;2022-10-23T09:06:40;100510.09;;;13.83;82.48
69402;BME280;56589;51.992;5.924;2022-10-23T09:09:54;100508.63;;;13.90;82.39
69402;BME280;56589;51.992;5.924;2022-10-23T09:12:35;100490.59;;;13.95;82.45
69402;BME280;56589;51.992;5.924;2022-10-23T09:15:12;100484.69;;;14.02;82.62
69402;BME280;56589;51.992;5.924;2022-10-23T09:17:44;100479.03;;;14.07;82.14
69402;BME280;56589;51.992;5.924;2022-10-23T09:20:17;100479.34;;;14.14;82.54
69402;BME280;56589;51.992;5.924;2022-10-23T09:22:45;100472.84;;;14.18;81.92
69402;BME280;56589;51.992;5.924;2022-10-23T09:25:17;100473.41;;;14.21;82.09
69402;BME280;56589;51.992;5.924;2022-10-23T09:27:46;100474.00;;;14.25;82.11
69402;BME280;56589;51.992;5.924;2022-10-23T09:30:24;100456.34;;;14.25;81.49
69402;BME280;56589;51.992;5.924;2022-10-23T09:32:51;100461.63;;;14.25;81.43
69402;BME280;56589;51.992;5.924;2022-10-23T09:35:21;100465.09;;;14.26;81.76
69402;BME280;56589;51.992;5.924;2022-10-23T09:37:48;100462.22;;;14.29;81.80
69402;BME280;56589;51.992;5.924;2022-10-23T09:40:18;100458.47;;;14.31;81.55
69402;BME280;56589;51.992;5.924;2022-10-23T09:42:54;100459.06;;;14.35;81.63
69402;BME280;56589;51.992;5.924;2022-10-23T09:45:28;100460.34;;;14.41;81.58
69402;BME280;56589;51.992;5.924;2022-10-23T09:48:09;100460.91;;;14.44;81.25
69402;BME280;56589;51.992;5.924;2022-10-23T09:50:51;100453.94;;;14.43;80.90
69402;BME280;56589;51.992;5.924;2022-10-23T09:53:29;100450.34;;;14.44;81.12
69402;BME280;56589;51.992;5.924;2022-10-23T09:55:59;100445.63;;;14.48;80.83
69402;BME280;56589;51.992;5.924;2022-10-23T09:58:35;100446.09;;;14.53;81.03
69402;BME280;56589;51.992;5.924;2022-10-23T10:01:21;100434.00;;;14.60;80.74
69402;BME280;56589;51.992;5.924;2022-10-23T10:03:49;100433.75;;;14.63;80.38
69402;BME280;56589;51.992;5.924;2022-10-23T10:06:22;100418.34;;;14.68;80.85
69402;BME280;56589;51.992;5.924;2022-10-23T10:08:51;100433.81;;;14.73;80.32
69402;BME280;56589;51.992;5.924;2022-10-23T10:11:24;100435.19;;;14.77;80.55
69402;BME280;56589;51.992;5.924;2022-10-23T10:14:03;100428.97;;;14.78;79.67
69402;BME280;56589;51.992;5.924;2022-10-23T10:16:50;100413.81;;;14.80;79.71
69402;BME280;56589;51.992;5.924;2022-10-23T10:19:31;100407.28;;;14.84;79.67
69402;BME280;56589;51.992;5.924;2022-10-23T10:22:19;100418.28;;;14.89;79.48
69402;BME280;56589;51.992;5.924;2022-10-23T10:24:57;100411.91;;;14.92;79.34
69402;BME280;56589;51.992;5.924;2022-10-23T10:27:40;100405.66;;;15.02;79.94
69402;BME280;56589;51.992;5.924;2022-10-23T10:30:15;100407.47;;;15.11;79.56
69402;BME280;56589;51.992;5.924;2022-10-23T10:32:52;100399.13;;;15.16;78.75
69402;BME280;56589;51.992;5.924;2022-10-23T10:35:27;100402.31;;;15.20;78.62
69402;BME280;56589;51.992;5.924;2022-10-23T10:38:12;100385.38;;;15.22;78.80
69402;BME280;56589;51.992;5.924;2022-10-23T10:41:11;100381.59;;;15.25;78.46
69402;BME280;56589;51.992;5.924;2022-10-23T10:44:00;100381.19;;;15.29;78.54
69402;BME280;56589;51.992;5.924;2022-10-23T10:46:46;100372.84;;;15.34;78.35
69402;BME280;56589;51.992;5.924;2022-10-23T10:49:24;100366.28;;;15.38;78.39
69402;BME280;56589;51.992;5.924;2022-10-23T10:52:07;100359.75;;;15.42;78.00
69402;BME280;56589;51.992;5.924;2022-10-23T10:54:46;100334.53;;;15.48;77.94
69402;BME280;56589;51.992;5.924;2022-10-23T10:57:31;100333.41;;;15.50;77.46
69402;BME280;56589;51.992;5.924;2022-10-23T11:00:04;100328.84;;;15.52;77.39
69402;BME280;56589;51.992;5.924;2022-10-23T11:02:42;100334.66;;;15.56;77.76
69402;BME280;56589;51.992;5.924;2022-10-23T11:05:30;100321.00;;;15.60;77.37
69402;BME280;56589;51.992;5.924;2022-10-23T11:07:59;100321.56;;;15.64;77.49
69402;BME280;56589;51.992;5.924;2022-10-23T11:10:30;100314.31;;;15.66;76.96
69402;BME280;56589;51.992;5.924;2022-10-23T11:12:58;100315.84;;;15.69;76.70
69402;BME280;56589;51.992;5.924;2022-10-23T11:15:27;100319.75;;;15.74;76.65
69402;BME280;56589;51.992;5.924;2022-10-23T11:18:02;100311.41;;;15.79;76.37
69402;BME280;56589;51.992;5.924;2022-10-23T11:20:50;100299.66;;;15.81;76.36
69402;BME280;56589;51.992;5.924;2022-10-23T11:23:42;100307.91;;;15.88;75.74
69402;BME280;56589;51.992;5.924;2022-10-23T11:26:36;100297.84;;;15.91;75.86
69402;BME280;56589;51.992;5.924;2022-10-23T11:29:26;100291.81;;;15.99;76.21
69402;BME280;56589;51.992;5.924;2022-10-23T11:32:20;100281.63;;;16.04;75.26
69402;BME280;56589;51.992;5.924;2022-10-23T11:35:23;100291.63;;;16.10;75.09
69402;BME280;56589;51.992;5.924;2022-10-23T11:38:15;100291.03;;;16.16;75.16
69402;BME280;56589;51.992;5.924;2022-10-23T11:40:44;100271.91;;;16.23;75.07
69402;BME280;56589;51.992;5.924;2022-10-23T11:43:12;100262.28;;;16.31;74.62
69402;BME280;56589;51.992;5.924;2022-10-23T11:45:39;100248.72;;;16.34;74.72
69402;BME280;56589;51.992;5.924;2022-10-23T11:48:19;100245.03;;;16.45;74.21
69402;BME280;56589;51.992;5.924;2022-10-23T11:50:51;100247.91;;;16.52;74.64
69402;BME280;56589;51.992;5.924;2022-10-23T11:53:37;100240.03;;;16.60;73.68
69402;BME280;56589;51.992;5.924;2022-10-23T11:58:50;100240.25;;;16.66;73.42
69402;BME280;56589;51.992;5.924;2022-10-23T12:01:28;100241.63;;;16.70;72.85
69402;BME280;56589;51.992;5.924;2022-10-23T12:04:02;100228.09;;;16.73;73.11
69402;BME280;56589;51.992;5.924;2022-10-23T12:06:43;100221.84;;;16.75;72.83
69402;BME280;56589;51.992;5.924;2022-10-23T12:09:25;100215.22;;;16.79;72.14
69402;BME280;56589;51.992;5.924;2022-10-23T12:12:12;100213.78;;;16.84;72.14
69402;BME280;56589;51.992;5.924;2022-10-23T12:14:41;100232.28;;;16.94;73.03
69402;BME280;56589;51.992;5.924;2022-10-23T12:17:28;100216.63;;;17.09;72.59
69402;BME280;56589;51.992;5.924;2022-10-23T12:20:13;100215.56;;;17.19;72.21
69402;BME280;56589;51.992;5.924;2022-10-23T12:23:02;100206.66;;;17.29;72.13
69402;BME280;56589;51.992;5.924;2022-10-23T12:26:06;100200.06;;;17.33;71.46
69402;BME280;56589;51.992;5.924;2022-10-23T12:28:52;100196.94;;;17.37;71.23
69402;BME280;56589;51.992;5.924;2022-10-23T12:31:33;100203.13;;;17.46;70.81
69402;BME280;56589;51.992;5.924;2022-10-23T12:34:21;100201.47;;;17.45;70.83
69402;BME280;56589;51.992;5.924;2022-10-23T12:37:15;100186.53;;;17.44;70.18
69402;BME280;56589;51.992;5.924;2022-10-23T12:39:58;100186.16;;;17.39;70.36
69402;BME280;56589;51.992;5.924;2022-10-23T12:42:28;100183.34;;;17.40;70.98
69402;BME280;56589;51.992;5.924;2022-10-23T12:44:59;100183.22;;;17.42;70.34
69402;BME280;56589;51.992;5.924;2022-10-23T12:47:29;100186.69;;;17.42;70.44
69402;BME280;56589;51.992;5.924;2022-10-23T12:49:55;100178.56;;;17.44;70.71
69402;BME280;56589;51.992;5.924;2022-10-23T12:52:22;100179.94;;;17.48;70.56
69402;BME280;56589;51.992;5.924;2022-10-23T12:54:48;100176.28;;;17.49;70.36
69402;BME280;56589;51.992;5.924;2022-10-23T12:57:19;100170.63;;;17.52;70.23
69402;BME280;56589;51.992;5.924;2022-10-23T12:59:52;100160.03;;;17.52;70.17
69402;BME280;56589;51.992;5.924;2022-10-23T13:02:22;100154.41;;;17.55;70.25
69402;BME280;56589;51.992;5.924;2022-10-23T13:04:51;100155.59;;;17.61;70.17
69402;BME280;56589;51.992;5.924;2022-10-23T13:07:21;100145.66;;;17.63;69.81
69402;BME280;56589;51.992;5.924;2022-10-23T13:09:56;100147.13;;;17.65;69.80
69402;BME280;56589;51.992;5.924;2022-10-23T13:12:25;100145.31;;;17.66;69.79
69402;BME280;56589;51.992;5.924;2022-10-23T13:14:58;100145.88;;;17.69;70.27
69402;BME280;56589;51.992;5.924;2022-10-23T13:17:36;100140.56;;;17.69;69.59